sensor_id;sensor_type;location;lat;lon;timestamp;pressure;altitude;pressure_sealevel;temperature;humidity
24825;BME280;12910;57.690;11.974;2023-01-10T00:00:30;99420.25;;;5.20;100.00
24825;BME280;12910;57.690;11.974;2023-01-10T00:03:00;99430.41;;;5.20;100.00
24825;BME280;12910;57.690;11.974;2023-01-10T00:05:26;99433.81;;;5.20;100.00
24825;BME280;12910;57.690;11.974;2023-01-10T00:07:51;99436.38;;;5.22;100.00
24825;BME280;12910;57.690;11.974;2023-01-10T00:10:16;99432.16;;;5.22;100.00
24825;BME280;12910;57.690;11.974;2023-01-10T00:12:42;99443.19;;;5.24;100.00
24825;BME280;12910;57.690;11.974;2023-01-10T00:15:26;99437.19;;;5.19;100.00
24825;BME280;12910;57.690;11.974;2023-01-10T00:17:51;99444.03;;;5.23;100.00
24825;BME280;12910;57.690;11.974;2023-01-10T00:20:17;99442.34;;;5.25;100.00
24825;BME280;12910;57.690;11.974;2023-01-10T00:22:42;99435.47;;;5.18;100.00
24825;BME280;12910;57.690;11.974;2023-01-10T00:25:09;99446.56;;;5.23;100.00
24825;BME280;12910;57.690;11.974;2023-01-10T00:27:35;99451.66;;;5.23;100.00
24825;BME280;12910;57.690;11.974;2023-01-10T00:30:01;99458.38;;;5.21;100.00
24825;BME280;12910;57.690;11.974;2023-01-10T00:32:35;99450.75;;;5.21;100.00
24825;BME280;12910;57.690;11.974;2023-01-10T00:35:00;99446.44;;;5.17;100.00
24825;BME280;12910;57.690;11.974;2023-01-10T00:37:26;99456.66;;;5.20;100.00
24825;BME280;12910;57.690;11.974;2023-01-10T00:39:51;99444.72;;;5.14;100.00
24825;BME280;12910;57.690;11.974;2023-01-10T00:42:16;99467.69;;;5.21;100.00
24825;BME280;12910;57.690;11.974;2023-01-10T00:45:00;99464.28;;;5.19;100.00
24825;BME280;12910;57.690;11.974;2023-01-10T00:47:25;99461.69;;;5.17;100.00
24825;BME280;12910;57.690;11.974;2023-01-10T00:49:51;99465.03;;;5.14;100.00
24825;BME280;12910;57.690;11.974;2023-01-10T00:52:16;99453.94;;;5.09;100.00
24825;BME280;12910;57.690;11.974;2023-01-10T00:54:42;99467.69;;;5.21;100.00
24825;BME280;12910;57.690;11.974;2023-01-10T00:57:07;99469.38;;;5.22;100.00
24825;BME280;12910;57.690;11.974;2023-01-10T00:59:32;99463.31;;;5.13;100.00
24825;BME280;12910;57.690;11.974;2023-01-10T01:01:58;99476.19;;;5.23;100.00
24825;BME280;12910;57.690;11.974;2023-01-10T01:04:23;99483.75;;;5.20;100.00
24825;BME280;12910;57.690;11.974;2023-01-10T01:06:48;99482.06;;;5.19;100.00
24825;BME280;12910;57.690;11.974;2023-01-10T01:09:15;99487.97;;;5.18;100.00
24825;BME280;12910;57.690;11.974;2023-01-10T01:11:41;99489.63;;;5.17;100.00
24825;BME280;12910;57.690;11.974;2023-01-10T01:14:06;99498.16;;;5.21;100.00
24825;BME280;12910;57.690;11.974;2023-01-10T01:16:32;99502.41;;;5.20;100.00
24825;BME280;12910;57.690;11.974;2023-01-10T01:18:57;99494.69;;;5.17;100.00
24825;BME280;12910;57.690;11.974;2023-01-10T01:21:23;99507.47;;;5.20;100.00
24825;BME280;12910;57.690;11.974;2023-01-10T01:23:53;99506.56;;;5.17;100.00
24825;BME280;12910;57.690;11.974;2023-01-10T01:26:21;99514.13;;;5.15;100.00
24825;BME280;12910;57.690;11.974;2023-01-10T01:28:47;99513.22;;;5.11;100.00
24825;BME280;12910;57.690;11.974;2023-01-10T01:31:12;99515.84;;;5.16;100.00
24825;BME280;12910;57.690;11.974;2023-01-10T01:33:38;99521.72;;;5.12;100.00
24825;BME280;12910;57.690;11.974;2023-01-10T01:36:07;99532.66;;;5.09;100.00
24825;BME280;12910;57.690;11.974;2023-01-10T01:38:34;99534.34;;;5.10;100.00
24825;BME280;12910;57.690;11.974;2023-01-10T01:41:00;99515.34;;;4.91;100.00
24825;BME280;12910;57.690;11.974;2023-01-10T01:43:27;99541.94;;;5.09;100.00
24825;BME280;12910;57.690;11.974;2023-01-10T01:45:54;99536.84;;;5.07;100.00
24825;BME280;12910;57.690;11.974;2023-01-10T01:48:35;99542.81;;;5.09;100.00
24825;BME280;12910;57.690;11.974;2023-01-10T01:53:36;99547.00;;;5.07;100.00
24825;BME280;12910;57.690;11.974;2023-01-10T01:56:08;99550.47;;;5.12;100.00
24825;BME280;12910;57.690;11.974;2023-01-10T01:58:45;99549.56;;;5.09;100.00
24825;BME280;12910;57.690;11.974;2023-01-10T02:01:13;99549.56;;;5.09;100.00
24825;BME280;12910;57.690;11.974;2023-01-10T02:03:41;99552.09;;;5.09;100.00
24825;BME280;12910;57.690;11.974;2023-01-10T02:06:07;99543.59;;;5.07;100.00
24825;BME280;12910;57.690;11.974;2023-01-10T02:08:33;99566.53;;;5.10;100.00
24825;BME280;12910;57.690;11.974;2023-01-10T02:11:08;99572.44;;;5.09;100.00
24825;BME280;12910;57.690;11.974;2023-01-10T02:13:39;99579.22;;;5.10;100.00
24825;BME280;12910;57.690;11.974;2023-01-10T02:16:05;99583.47;;;5.11;100.00
24825;BME280;12910;57.690;11.974;2023-01-10T02:18:31;99580.03;;;5.09;100.00
24825;BME280;12910;57.690;11.974;2023-01-10T02:34:58;99595.31;;;5.10;100.00
24825;BME280;12910;57.690;11.974;2023-01-10T02:42:47;99592.94;;;5.18;100.00
24825;BME280;12910;57.690;11.974;2023-01-10T02:45:24;99602.19;;;5.16;100.00
24825;BME280;12910;57.690;11.974;2023-01-10T02:47:49;99602.19;;;5.16;100.00
24825;BME280;12910;57.690;11.974;2023-01-10T02:50:27;99608.16;;;5.17;100.00
24825;BME280;12910;57.690;11.974;2023-01-10T02:52:56;99598.81;;;5.14;100.00
24825;BME280;12910;57.690;11.974;2023-01-10T02:55:32;99608.09;;;5.13;100.00
24825;BME280;12910;57.690;11.974;2023-01-10T03:03:12;99619.94;;;5.13;100.00
24825;BME280;12910;57.690;11.974;2023-01-10T03:05:55;99624.13;;;5.12;100.00
24825;BME280;12910;57.690;11.974;2023-01-10T03:11:32;99632.63;;;5.13;100.00
24825;BME280;12910;57.690;11.974;2023-01-10T03:14:11;99629.28;;;5.14;100.00
24825;BME280;12910;57.690;11.974;2023-01-10T03:16:41;99645.34;;;5.14;100.00
24825;BME280;12910;57.690;11.974;2023-01-10T03:19:12;99639.34;;;5.11;100.00
24825;BME280;12910;57.690;11.974;2023-01-10T03:21:37;99646.16;;;5.12;100.00
24825;BME280;12910;57.690;11.974;2023-01-10T03:24:16;99641.78;;;5.06;100.00
24825;BME280;12910;57.690;11.974;2023-01-10T03:26:56;99652.97;;;5.14;100.00
24825;BME280;12910;57.690;11.974;2023-01-10T03:29:45;99659.81;;;5.17;100.00
24825;BME280;12910;57.690;11.974;2023-01-10T03:32:16;99657.22;;;5.14;100.00
24825;BME280;12910;57.690;11.974;2023-01-10T03:34:43;99657.13;;;5.11;100.00
24825;BME280;12910;57.690;11.974;2023-01-10T03:37:16;99676.66;;;5.13;100.00
24825;BME280;12910;57.690;11.974;2023-01-10T03:42:21;99671.56;;;5.13;100.00
24825;BME280;12910;57.690;11.974;2023-01-10T03:45:05;99675.00;;;5.14;100.00
24825;BME280;12910;57.690;11.974;2023-01-10T03:47:41;99674.13;;;5.13;100.00
24825;BME280;12910;57.690;11.974;2023-01-10T03:50:16;99680.06;;;5.14;100.00
24825;BME280;12910;57.690;11.974;2023-01-10T03:52:43;99680.06;;;5.14;100.00
24825;BME280;12910;57.690;11.974;2023-01-10T03:55:10;99687.72;;;5.15;100.00
24825;BME280;12910;57.690;11.974;2023-01-10T03:57:36;99688.50;;;5.13;100.00
24825;BME280;12910;57.690;11.974;2023-01-10T04:00:02;99688.44;;;5.10;100.00
24825;BME280;12910;57.690;11.974;2023-01-10T04:02:30;99695.25;;;5.12;100.00
24825;BME280;12910;57.690;11.974;2023-01-10T04:04:56;99704.59;;;5.13;100.00
24825;BME280;12910;57.690;11.974;2023-01-10T04:07:23;99706.22;;;5.10;100.00
24825;BME280;12910;57.690;11.974;2023-01-10T04:09:49;99701.13;;;5.10;100.00
24825;BME280;12910;57.690;11.974;2023-01-10T04:12:14;99705.41;;;5.11;100.00
24825;BME280;12910;57.690;11.974;2023-01-10T04:14:40;99697.78;;;5.11;100.00
24825;BME280;12910;57.690;11.974;2023-01-10T04:17:05;99708.84;;;5.13;100.00
24825;BME280;12910;57.690;11.974;2023-01-10T04:19:31;99713.00;;;5.11;100.00
24825;BME280;12910;57.690;11.974;2023-01-10T04:21:56;99711.16;;;5.04;100.00
24825;BME280;12910;57.690;11.974;2023-01-10T04:24:21;99720.59;;;5.09;100.00
24825;BME280;12910;57.690;11.974;2023-01-10T04:26:47;99732.50;;;5.12;100.00
24825;BME280;12910;57.690;11.974;2023-01-10T04:29:12;99742.72;;;5.15;100.00
24825;BME280;12910;57.690;11.974;2023-01-10T04:31:38;99743.50;;;5.12;100.00
24825;BME280;12910;57.690;11.974;2023-01-10T04:34:05;99746.13;;;5.14;100.00
24825;BME280;12910;57.690;11.974;2023-01-10T04:36:30;99758.66;;;5.08;100.00
24825;BME280;12910;57.690;11.974;2023-01-10T04:38:55;99765.47;;;5.10;100.00
24825;BME280;12910;57.690;11.974;2023-01-10T04:41:21;99757.91;;;5.12;100.00
24825;BME280;12910;57.690;11.974;2023-01-10T04:43:46;99769.78;;;5.13;100.00
24825;BME280;12910;57.690;11.974;2023-01-10T04:46:14;99777.44;;;5.14;100.00
24825;BME280;12910;57.690;11.974;2023-01-10T04:48:39;99771.44;;;5.11;100.00
24825;BME280;12910;57.690;11.974;2023-01-10T04:51:04;99766.91;;;4.99;100.00
24825;BME280;12910;57.690;11.974;2023-01-10T04:53:30;99791.84;;;5.14;100.00
24825;BME280;12910;57.690;11.974;2023-01-10T04:56:01;99789.25;;;5.12;100.00
24825;BME280;12910;57.690;11.974;2023-01-10T04:58:27;99796.81;;;5.11;100.00
24825;BME280;12910;57.690;11.974;2023-01-10T05:00:52;99784.63;;;4.97;100.00
24825;BME280;12910;57.690;11.974;2023-01-10T05:03:18;99796.75;;;5.08;100.00
24825;BME280;12910;57.690;11.974;2023-01-10T05:05:44;99801.03;;;5.10;100.00
24825;BME280;12910;57.690;11.974;2023-01-10T05:08:09;99798.56;;;5.12;100.00
24825;BME280;12910;57.690;11.974;2023-01-10T05:10:35;99808.72;;;5.12;100.00
24825;BME280;12910;57.690;11.974;2023-01-10T05:13:00;99795.91;;;5.07;100.00
24825;BME280;12910;57.690;11.974;2023-01-10T05:15:25;99808.72;;;5.12;100.00
24825;BME280;12910;57.690;11.974;2023-01-10T05:17:57;99815.63;;;5.18;100.00
24825;BME280;12910;57.690;11.974;2023-01-10T05:20:22;99803.53;;;5.09;100.00
24825;BME280;12910;57.690;11.974;2023-01-10T05:22:47;99814.81;;;5.19;100.00
24825;BME280;12910;57.690;11.974;2023-01-10T05:25:13;99819.03;;;5.20;100.00
24825;BME280;12910;57.690;11.974;2023-01-10T05:27:42;99830.06;;;5.20;100.00
24825;BME280;12910;57.690;11.974;2023-01-10T05:30:11;99829.16;;;5.18;100.00
24825;BME280;12910;57.690;11.974;2023-01-10T05:32:37;99838.53;;;5.21;100.00
24825;BME280;12910;57.690;11.974;2023-01-10T05:35:03;99840.25;;;5.20;100.00
24825;BME280;12910;57.690;11.974;2023-01-10T05:37:28;99832.53;;;5.17;100.00
24825;BME280;12910;57.690;11.974;2023-01-10T05:39:54;99841.06;;;5.19;100.00
24825;BME280;12910;57.690;11.974;2023-01-10T05:42:19;99845.31;;;5.20;100.00
24825;BME280;12910;57.690;11.974;2023-01-10T05:44:44;99850.44;;;5.22;100.00
24825;BME280;12910;57.690;11.974;2023-01-10T05:47:10;99843.63;;;5.21;100.00
24825;BME280;12910;57.690;11.974;2023-01-10T05:49:35;99849.59;;;5.21;100.00
24825;BME280;12910;57.690;11.974;2023-01-10T05:52:00;99859.78;;;5.23;100.00
24825;BME280;12910;57.690;11.974;2023-01-10T05:54:26;99861.50;;;5.24;100.00
24825;BME280;12910;57.690;11.974;2023-01-10T05:56:53;99861.47;;;5.22;100.00
24825;BME280;12910;57.690;11.974;2023-01-10T05:59:19;99863.09;;;5.20;100.00
24825;BME280;12910;57.690;11.974;2023-01-10T06:01:44;99869.97;;;5.24;100.00
24825;BME280;12910;57.690;11.974;2023-01-10T06:04:09;99869.97;;;5.24;100.00
24825;BME280;12910;57.690;11.974;2023-01-10T06:06:35;99874.22;;;5.25;100.00
24825;BME280;12910;57.690;11.974;2023-01-10T06:09:00;99869.91;;;5.21;100.00
24825;BME280;12910;57.690;11.974;2023-01-10T06:11:25;99876.78;;;5.25;100.00
24825;BME280;12910;57.690;11.974;2023-01-10T06:13:55;99883.44;;;5.20;100.00
24825;BME280;12910;57.690;11.974;2023-01-10T06:16:20;99892.91;;;5.27;100.00
24825;BME280;12910;57.690;11.974;2023-01-10T06:18:46;99879.31;;;5.25;100.00
24825;BME280;12910;57.690;11.974;2023-01-10T06:21:11;99872.47;;;5.23;100.00
24825;BME280;12910;57.690;11.974;2023-01-10T06:23:37;99887.91;;;5.29;100.00
24825;BME280;12910;57.690;11.974;2023-01-10T06:26:03;99886.94;;;5.25;100.00
24825;BME280;12910;57.690;11.974;2023-01-10T06:28:29;99890.28;;;5.24;100.00
24825;BME280;12910;57.690;11.974;2023-01-10T06:30:54;99895.47;;;5.27;100.00
24825;BME280;12910;57.690;11.974;2023-01-10T06:33:21;99882.53;;;5.18;100.00
24825;BME280;12910;57.690;11.974;2023-01-10T06:35:46;99896.38;;;5.29;100.00
24825;BME280;12910;57.690;11.974;2023-01-10T06:38:13;99892.88;;;5.26;100.00
24825;BME280;12910;57.690;11.974;2023-01-10T06:40:39;99904.78;;;5.27;100.00
24825;BME280;12910;57.690;11.974;2023-01-10T06:43:04;99905.47;;;5.21;100.00
24825;BME280;12910;57.690;11.974;2023-01-10T06:45:30;99911.41;;;5.22;100.00
24825;BME280;12910;57.690;11.974;2023-01-10T06:47:56;99923.38;;;5.26;100.00
24825;BME280;12910;57.690;11.974;2023-01-10T06:50:21;99927.53;;;5.22;100.00
24825;BME280;12910;57.690;11.974;2023-01-10T06:53:01;99917.28;;;5.19;100.00
24825;BME280;12910;57.690;11.974;2023-01-10T06:55:27;99923.25;;;5.21;100.00
24825;BME280;12910;57.690;11.974;2023-01-10T06:57:55;99935.91;;;5.20;100.00
24825;BME280;12910;57.690;11.974;2023-01-10T07:00:21;99930.91;;;5.23;100.00
24825;BME280;12910;57.690;11.974;2023-01-10T07:02:46;99946.16;;;5.23;100.00
24825;BME280;12910;57.690;11.974;2023-01-10T07:05:12;99942.75;;;5.22;100.00
24825;BME280;12910;57.690;11.974;2023-01-10T07:07:37;99937.69;;;5.22;100.00
24825;BME280;12910;57.690;11.974;2023-01-10T07:10:02;99954.66;;;5.23;100.00
24825;BME280;12910;57.690;11.974;2023-01-10T07:12:28;99943.59;;;5.21;100.00
24825;BME280;12910;57.690;11.974;2023-01-10T07:14:53;99952.00;;;5.19;100.00
24825;BME280;12910;57.690;11.974;2023-01-10T07:17:19;99958.75;;;5.20;100.00
24825;BME280;12910;57.690;11.974;2023-01-10T07:19:44;99957.94;;;5.21;100.00
24825;BME280;12910;57.690;11.974;2023-01-10T07:22:10;99945.06;;;5.13;100.00
24825;BME280;12910;57.690;11.974;2023-01-10T07:24:36;99963.03;;;5.21;100.00
24825;BME280;12910;57.690;11.974;2023-01-10T07:27:02;99946.78;;;5.14;100.00
24825;BME280;12910;57.690;11.974;2023-01-10T07:29:27;99963.00;;;5.19;100.00
24825;BME280;12910;57.690;11.974;2023-01-10T07:31:53;99956.09;;;5.15;100.00
24825;BME280;12910;57.690;11.974;2023-01-10T07:34:18;99968.06;;;5.19;100.00
24825;BME280;12910;57.690;11.974;2023-01-10T07:36:44;99962.84;;;5.13;100.00
24825;BME280;12910;57.690;11.974;2023-01-10T07:39:09;99977.50;;;5.23;100.00
24825;BME280;12910;57.690;11.974;2023-01-10T07:41:35;99991.09;;;5.25;100.00
24825;BME280;12910;57.690;11.974;2023-01-10T07:44:00;99992.00;;;5.27;100.00
24825;BME280;12910;57.690;11.974;2023-01-10T07:46:26;99993.69;;;5.27;100.00
24825;BME280;12910;57.690;11.974;2023-01-10T07:48:51;99985.03;;;5.20;100.00
24825;BME280;12910;57.690;11.974;2023-01-10T07:51:16;100001.22;;;5.24;100.00
24825;BME280;12910;57.690;11.974;2023-01-10T07:53:42;100003.72;;;5.22;100.00
24825;BME280;12910;57.690;11.974;2023-01-10T07:56:07;100004.56;;;5.21;100.00
24825;BME280;12910;57.690;11.974;2023-01-10T07:58:33;100007.94;;;5.22;100.00
24825;BME280;12910;57.690;11.974;2023-01-10T08:00:59;100008.72;;;5.19;100.00
24825;BME280;12910;57.690;11.974;2023-01-10T08:03:25;100013.91;;;5.22;100.00
24825;BME280;12910;57.690;11.974;2023-01-10T08:05:58;100012.16;;;5.21;100.00
24825;BME280;12910;57.690;11.974;2023-01-10T08:08:24;100017.97;;;5.17;100.00
24825;BME280;12910;57.690;11.974;2023-01-10T08:10:49;100017.16;;;5.18;100.00
24825;BME280;12910;57.690;11.974;2023-01-10T08:13:15;100014.72;;;5.21;100.00
24825;BME280;12910;57.690;11.974;2023-01-10T08:15:40;100009.63;;;5.21;100.00
24825;BME280;12910;57.690;11.974;2023-01-10T08:18:05;100015.53;;;5.20;100.00
24825;BME280;12910;57.690;11.974;2023-01-10T08:20:31;100029.31;;;5.28;100.00
24825;BME280;12910;57.690;11.974;2023-01-10T08:22:57;100025.84;;;5.26;100.00
24825;BME280;12910;57.690;11.974;2023-01-10T08:25:23;100021.56;;;5.24;100.00
24825;BME280;12910;57.690;11.974;2023-01-10T08:27:48;100021.56;;;5.24;100.00
24825;BME280;12910;57.690;11.974;2023-01-10T08:30:14;100028.31;;;5.23;100.00
24825;BME280;12910;57.690;11.974;2023-01-10T08:32:39;100036.16;;;5.31;100.00
24825;BME280;12910;57.690;11.974;2023-01-10T08:35:05;100039.47;;;5.28;100.00
24825;BME280;12910;57.690;11.974;2023-01-10T08:37:31;100046.28;;;5.29;100.00
24825;BME280;12910;57.690;11.974;2023-01-10T08:39:56;100045.38;;;5.27;100.00
24825;BME280;12910;57.690;11.974;2023-01-10T08:42:22;100044.56;;;5.28;100.00
24825;BME280;12910;57.690;11.974;2023-01-10T08:44:47;100053.94;;;5.31;100.00
24825;BME280;12910;57.690;11.974;2023-01-10T08:47:12;100048.94;;;5.34;100.00
24825;BME280;12910;57.690;11.974;2023-01-10T08:49:38;100026.63;;;5.24;100.00
24825;BME280;12910;57.690;11.974;2023-01-10T08:52:03;100058.31;;;5.37;100.00
24825;BME280;12910;57.690;11.974;2023-01-10T08:54:30;100056.59;;;5.36;100.00
24825;BME280;12910;57.690;11.974;2023-01-10T08:56:57;100059.06;;;5.33;100.00
24825;BME280;12910;57.690;11.974;2023-01-10T08:59:22;100065.03;;;5.35;100.00
24825;BME280;12910;57.690;11.974;2023-01-10T09:01:48;100063.28;;;5.32;100.00
24825;BME280;12910;57.690;11.974;2023-01-10T09:04:13;100045.38;;;5.27;100.00
24825;BME280;12910;57.690;11.974;2023-01-10T09:06:39;100056.53;;;5.33;100.00
24825;BME280;12910;57.690;11.974;2023-01-10T09:09:04;100061.56;;;5.31;100.00
24825;BME280;12910;57.690;11.974;2023-01-10T09:11:30;100066.75;;;5.36;100.00
24825;BME280;12910;57.690;11.974;2023-01-10T09:13:55;100067.72;;;5.39;100.00
24825;BME280;12910;57.690;11.974;2023-01-10T09:16:21;100063.47;;;5.38;100.00
24825;BME280;12910;57.690;11.974;2023-01-10T09:18:46;100075.47;;;5.44;100.00
24825;BME280;12910;57.690;11.974;2023-01-10T09:21:12;100068.59;;;5.40;100.00
24825;BME280;12910;57.690;11.974;2023-01-10T09:23:37;100078.06;;;5.45;100.00
24825;BME280;12910;57.690;11.974;2023-01-10T09:26:04;100085.75;;;5.49;100.00
24825;BME280;12910;57.690;11.974;2023-01-10T09:28:30;100077.16;;;5.43;100.00
24825;BME280;12910;57.690;11.974;2023-01-10T09:30:56;100093.34;;;5.47;100.00
24825;BME280;12910;57.690;11.974;2023-01-10T09:33:21;100101.06;;;5.50;100.00
24825;BME280;12910;57.690;11.974;2023-01-10T09:35:46;100097.66;;;5.50;100.00
24825;BME280;12910;57.690;11.974;2023-01-10T09:38:14;100096.97;;;5.55;100.00
24825;BME280;12910;57.690;11.974;2023-01-10T09:46:03;100097.06;;;5.58;100.00
24825;BME280;12910;57.690;11.974;2023-01-10T09:51:28;100102.06;;;5.55;100.00
24825;BME280;12910;57.690;11.974;2023-01-10T09:53:58;100106.31;;;5.56;100.00
24825;BME280;12910;57.690;11.974;2023-01-10T09:56:27;100099.25;;;5.46;100.00
24825;BME280;12910;57.690;11.974;2023-01-10T09:58:54;100101.97;;;5.52;100.00
24825;BME280;12910;57.690;11.974;2023-01-10T10:01:26;100106.16;;;5.50;100.00
24825;BME280;12910;57.690;11.974;2023-01-10T10:04:22;100117.31;;;5.55;100.00
24825;BME280;12910;57.690;11.974;2023-01-10T10:06:50;100108.72;;;5.52;100.00
24825;BME280;12910;57.690;11.974;2023-01-10T10:09:22;100104.44;;;5.49;100.00
24825;BME280;12910;57.690;11.974;2023-01-10T10:17:55;100129.38;;;5.63;100.00
24825;BME280;12910;57.690;11.974;2023-01-10T10:26:12;100137.91;;;5.65;100.00
24825;BME280;12910;57.690;11.974;2023-01-10T10:34:44;100153.22;;;5.66;100.00
24825;BME280;12910;57.690;11.974;2023-01-10T10:37:22;100149.84;;;5.67;100.00
24825;BME280;12910;57.690;11.974;2023-01-10T10:39:59;100159.06;;;5.64;100.00
24825;BME280;12910;57.690;11.974;2023-01-10T10:42:32;100155.78;;;5.68;100.00
24825;BME280;12910;57.690;11.974;2023-01-10T10:50:47;100167.59;;;5.66;100.00
24825;BME280;12910;57.690;11.974;2023-01-10T10:53:14;100171.16;;;5.71;100.00
24825;BME280;12910;57.690;11.974;2023-01-10T10:55:40;100167.78;;;5.72;100.00
24825;BME280;12910;57.690;11.974;2023-01-10T10:58:06;100177.13;;;5.73;100.00
24825;BME280;12910;57.690;11.974;2023-01-10T11:00:32;100178.81;;;5.72;100.00
24825;BME280;12910;57.690;11.974;2023-01-10T11:05:46;100168.50;;;5.68;100.00
24825;BME280;12910;57.690;11.974;2023-01-10T11:08:15;100155.69;;;5.65;100.00
24825;BME280;12910;57.690;11.974;2023-01-10T11:10:45;100162.44;;;5.63;100.00
24825;BME280;12910;57.690;11.974;2023-01-10T11:15:41;100156.34;;;5.57;100.00
24825;BME280;12910;57.690;11.974;2023-01-10T11:18:15;100166.59;;;5.60;100.00
24825;BME280;12910;57.690;11.974;2023-01-10T11:21:02;100160.56;;;5.57;100.00
24825;BME280;12910;57.690;11.974;2023-01-10T11:23:36;100170.75;;;5.57;100.00
24825;BME280;12910;57.690;11.974;2023-01-10T11:26:03;100151.81;;;5.47;100.00
24825;BME280;12910;57.690;11.974;2023-01-10T11:28:31;100167.31;;;5.56;100.00
24825;BME280;12910;57.690;11.974;2023-01-10T11:30:58;100167.22;;;5.53;100.00
24825;BME280;12910;57.690;11.974;2023-01-10T11:33:30;100167.22;;;5.53;100.00
24825;BME280;12910;57.690;11.974;2023-01-10T11:36:07;100174.91;;;5.55;100.00
24825;BME280;12910;57.690;11.974;2023-01-10T11:38:34;100173.22;;;5.55;100.00
24825;BME280;12910;57.690;11.974;2023-01-10T11:41:02;100184.22;;;5.54;100.00
24825;BME280;12910;57.690;11.974;2023-01-10T11:43:37;100175.69;;;5.52;100.00
24825;BME280;12910;57.690;11.974;2023-01-10T11:46:22;100177.31;;;5.50;100.00
24825;BME280;12910;57.690;11.974;2023-01-10T11:49:05;100172.13;;;5.47;100.00
24825;BME280;12910;57.690;11.974;2023-01-10T11:51:42;100178.13;;;5.49;100.00
24825;BME280;12910;57.690;11.974;2023-01-10T11:54:24;100178.16;;;5.51;100.00
24825;BME280;12910;57.690;11.974;2023-01-10T11:59:25;100179.75;;;5.47;100.00
24825;BME280;12910;57.690;11.974;2023-01-10T12:01:58;100180.69;;;5.49;100.00
24825;BME280;12910;57.690;11.974;2023-01-10T12:04:26;100179.94;;;5.53;100.00
24825;BME280;12910;57.690;11.974;2023-01-10T12:06:56;100191.78;;;5.53;100.00
24825;BME280;12910;57.690;11.974;2023-01-10T12:09:43;100191.69;;;5.50;100.00
24825;BME280;12910;57.690;11.974;2023-01-10T12:12:28;100201.88;;;5.50;100.00
24825;BME280;12910;57.690;11.974;2023-01-10T12:14:56;100189.00;;;5.45;100.00
24825;BME280;12910;57.690;11.974;2023-01-10T12:17:25;100194.09;;;5.45;100.00
24825;BME280;12910;57.690;11.974;2023-01-10T12:19:52;100200.06;;;5.45;100.00
24825;BME280;12910;57.690;11.974;2023-01-10T12:22:47;100204.25;;;5.45;100.00
24825;BME280;12910;57.690;11.974;2023-01-10T12:25:16;100211.81;;;5.42;100.00
24825;BME280;12910;57.690;11.974;2023-01-10T12:27:43;100215.22;;;5.42;100.00
24825;BME280;12910;57.690;11.974;2023-01-10T12:30:33;100214.41;;;5.43;100.00
24825;BME280;12910;57.690;11.974;2023-01-10T12:33:05;100217.78;;;5.44;100.00
24825;BME280;12910;57.690;11.974;2023-01-10T12:41:27;100232.84;;;5.38;100.00
24825;BME280;12910;57.690;11.974;2023-01-10T12:44:23;100235.44;;;5.39;100.00
24825;BME280;12910;57.690;11.974;2023-01-10T12:46:57;100239.78;;;5.42;100.00
24825;BME280;12910;57.690;11.974;2023-01-10T12:49:44;100231.34;;;5.43;100.00
24825;BME280;12910;57.690;11.974;2023-01-10T12:52:23;100230.41;;;5.41;100.00
24825;BME280;12910;57.690;11.974;2023-01-10T12:54:51;100233.81;;;5.41;100.00
24825;BME280;12910;57.690;11.974;2023-01-10T12:57:29;100239.78;;;5.42;100.00
24825;BME280;12910;57.690;11.974;2023-01-10T12:59:58;100238.84;;;5.40;100.00
24825;BME280;12910;57.690;11.974;2023-01-10T13:02:29;100234.44;;;5.34;100.00
24825;BME280;12910;57.690;11.974;2023-01-10T13:04:59;100237.00;;;5.34;100.00
24825;BME280;12910;57.690;11.974;2023-01-10T13:07:31;100239.50;;;5.33;100.00
24825;BME280;12910;57.690;11.974;2023-01-10T13:10:00;100240.38;;;5.35;100.00
24825;BME280;12910;57.690;11.974;2023-01-10T13:12:35;100245.56;;;5.38;100.00
24825;BME280;12910;57.690;11.974;2023-01-10T13:15:08;100246.38;;;5.37;100.00
24825;BME280;12910;57.690;11.974;2023-01-10T13:17:43;100249.72;;;5.36;100.00
24825;BME280;12910;57.690;11.974;2023-01-10T13:22:47;100244.56;;;5.33;100.00
24825;BME280;12910;57.690;11.974;2023-01-10T13:25:34;100241.13;;;5.30;100.00
24825;BME280;12910;57.690;11.974;2023-01-10T13:28:03;100244.50;;;5.31;100.00
24825;BME280;12910;57.690;11.974;2023-01-10T13:30:35;100251.28;;;5.30;100.00
24825;BME280;12910;57.690;11.974;2023-01-10T13:33:22;100261.44;;;5.30;100.00
24825;BME280;12910;57.690;11.974;2023-01-10T13:35:49;100264.03;;;5.32;100.00
24825;BME280;12910;57.690;11.974;2023-01-10T13:38:17;100266.53;;;5.30;100.00
24825;BME280;12910;57.690;11.974;2023-01-10T13:40:58;100258.09;;;5.32;100.00
24825;BME280;12910;57.690;11.974;2023-01-10T13:48:40;100259.47;;;5.22;100.00
24825;BME280;12910;57.690;11.974;2023-01-10T13:51:12;100266.31;;;5.24;100.00
24825;BME280;12910;57.690;11.974;2023-01-10T13:56:33;100271.50;;;5.27;100.00
24825;BME280;12910;57.690;11.974;2023-01-10T13:59:00;100254.44;;;5.23;100.00
24825;BME280;12910;57.690;11.974;2023-01-10T14:01:57;100268.16;;;5.28;100.00
24825;BME280;12910;57.690;11.974;2023-01-10T14:04:53;100269.72;;;5.25;100.00
24825;BME280;12910;57.690;11.974;2023-01-10T14:07:44;100273.19;;;5.27;100.00
24825;BME280;12910;57.690;11.974;2023-01-10T14:10:18;100271.38;;;5.24;100.00
24825;BME280;12910;57.690;11.974;2023-01-10T14:12:51;100271.38;;;5.24;100.00
24825;BME280;12910;57.690;11.974;2023-01-10T14:15:24;100283.28;;;5.25;100.00
24825;BME280;12910;57.690;11.974;2023-01-10T14:18:01;100276.44;;;5.23;100.00
24825;BME280;12910;57.690;11.974;2023-01-10T14:20:28;100280.69;;;5.24;100.00
24825;BME280;12910;57.690;11.974;2023-01-10T14:23:17;100278.13;;;5.22;100.00